sensor_id;sensor_type;location;lat;lon;timestamp;temperature;humidity
26909;DHT22;14477;51.038;4.588;2023-06-19T00:00:53;23.40;64.10
26909;DHT22;14477;51.038;4.588;2023-06-19T00:03:19;23.40;64.20
26909;DHT22;14477;51.038;4.588;2023-06-19T00:05:46;23.40;64.30
26909;DHT22;14477;51.038;4.588;2023-06-19T00:08:12;23.40;64.50
26909;DHT22;14477;51.038;4.588;2023-06-19T00:10:37;23.30;64.50
26909;DHT22;14477;51.038;4.588;2023-06-19T00:13:03;23.20;64.60
26909;DHT22;14477;51.038;4.588;2023-06-19T00:15:29;23.20;65.00
26909;DHT22;14477;51.038;4.588;2023-06-19T00:17:56;23.20;64.90
26909;DHT22;14477;51.038;4.588;2023-06-19T00:20:23;23.20;65.10
26909;DHT22;14477;51.038;4.588;2023-06-19T00:22:49;23.10;65.10
26909;DHT22;14477;51.038;4.588;2023-06-19T00:25:18;23.10;65.60
26909;DHT22;14477;51.038;4.588;2023-06-19T00:27:45;23.00;65.60
26909;DHT22;14477;51.038;4.588;2023-06-19T00:30:11;23.00;65.90
26909;DHT22;14477;51.038;4.588;2023-06-19T00:32:37;23.00;66.10
26909;DHT22;14477;51.038;4.588;2023-06-19T00:35:16;22.90;66.30
26909;DHT22;14477;51.038;4.588;2023-06-19T00:37:42;22.90;66.80
26909;DHT22;14477;51.038;4.588;2023-06-19T00:40:26;22.90;66.60
26909;DHT22;14477;51.038;4.588;2023-06-19T00:42:52;22.80;67.60
26909;DHT22;14477;51.038;4.588;2023-06-19T00:45:17;22.80;67.20
26909;DHT22;14477;51.038;4.588;2023-06-19T00:47:43;22.80;67.20
26909;DHT22;14477;51.038;4.588;2023-06-19T00:50:09;22.80;67.30
26909;DHT22;14477;51.038;4.588;2023-06-19T00:52:35;22.80;67.60
26909;DHT22;14477;51.038;4.588;2023-06-19T00:55:01;22.80;67.90
26909;DHT22;14477;51.038;4.588;2023-06-19T00:57:28;22.80;67.70
26909;DHT22;14477;51.038;4.588;2023-06-19T00:59:55;22.80;67.90
26909;DHT22;14477;51.038;4.588;2023-06-19T01:02:21;22.80;67.90
26909;DHT22;14477;51.038;4.588;2023-06-19T01:04:51;22.80;68.20
26909;DHT22;14477;51.038;4.588;2023-06-19T01:07:22;22.80;68.20
26909;DHT22;14477;51.038;4.588;2023-06-19T01:09:56;22.90;68.70
26909;DHT22;14477;51.038;4.588;2023-06-19T01:12:35;22.80;68.60
26909;DHT22;14477;51.038;4.588;2023-06-19T01:15:03;22.80;68.90
26909;DHT22;14477;51.038;4.588;2023-06-19T01:17:31;22.80;68.70
26909;DHT22;14477;51.038;4.588;2023-06-19T01:19:57;22.80;68.60
26909;DHT22;14477;51.038;4.588;2023-06-19T01:22:41;22.80;68.70
26909;DHT22;14477;51.038;4.588;2023-06-19T01:25:10;22.80;69.70
26909;DHT22;14477;51.038;4.588;2023-06-19T01:27:40;22.80;68.70
26909;DHT22;14477;51.038;4.588;2023-06-19T01:30:11;22.80;68.90
26909;DHT22;14477;51.038;4.588;2023-06-19T01:32:47;22.80;69.50
26909;DHT22;14477;51.038;4.588;2023-06-19T01:35:17;22.70;69.50
26909;DHT22;14477;51.038;4.588;2023-06-19T01:37:43;22.80;69.40
26909;DHT22;14477;51.038;4.588;2023-06-19T01:40:11;22.70;69.20
26909;DHT22;14477;51.038;4.588;2023-06-19T01:42:39;22.70;69.30
26909;DHT22;14477;51.038;4.588;2023-06-19T01:45:06;22.60;69.30
26909;DHT22;14477;51.038;4.588;2023-06-19T01:47:32;22.60;69.30
26909;DHT22;14477;51.038;4.588;2023-06-19T01:49:58;22.60;69.50
26909;DHT22;14477;51.038;4.588;2023-06-19T01:52:24;22.50;69.40
26909;DHT22;14477;51.038;4.588;2023-06-19T01:54:51;22.50;69.90
26909;DHT22;14477;51.038;4.588;2023-06-19T01:57:16;22.50;69.90
26909;DHT22;14477;51.038;4.588;2023-06-19T01:59:42;22.50;70.10
26909;DHT22;14477;51.038;4.588;2023-06-19T02:02:08;22.40;70.90
26909;DHT22;14477;51.038;4.588;2023-06-19T02:04:33;22.40;70.40
26909;DHT22;14477;51.038;4.588;2023-06-19T02:06:59;22.40;70.50
26909;DHT22;14477;51.038;4.588;2023-06-19T02:09:25;22.40;70.60
26909;DHT22;14477;51.038;4.588;2023-06-19T02:11:50;22.40;70.80
26909;DHT22;14477;51.038;4.588;2023-06-19T02:14:16;22.40;70.80
26909;DHT22;14477;51.038;4.588;2023-06-19T02:16:42;22.40;70.90
26909;DHT22;14477;51.038;4.588;2023-06-19T02:19:11;22.40;70.90
26909;DHT22;14477;51.038;4.588;2023-06-19T02:21:37;22.40;71.30
26909;DHT22;14477;51.038;4.588;2023-06-19T02:24:03;22.40;71.00
26909;DHT22;14477;51.038;4.588;2023-06-19T02:26:29;22.50;71.30
26909;DHT22;14477;51.038;4.588;2023-06-19T02:28:56;22.40;71.30
26909;DHT22;14477;51.038;4.588;2023-06-19T02:31:22;22.50;71.30
26909;DHT22;14477;51.038;4.588;2023-06-19T02:33:48;22.50;71.30
26909;DHT22;14477;51.038;4.588;2023-06-19T02:36:14;22.50;71.50
26909;DHT22;14477;51.038;4.588;2023-06-19T02:38:48;22.50;71.40
26909;DHT22;14477;51.038;4.588;2023-06-19T02:41:15;22.50;71.80
26909;DHT22;14477;51.038;4.588;2023-06-19T02:43:42;22.50;71.70
26909;DHT22;14477;51.038;4.588;2023-06-19T02:46:08;22.50;71.60
26909;DHT22;14477;51.038;4.588;2023-06-19T02:48:34;22.50;71.60
26909;DHT22;14477;51.038;4.588;2023-06-19T02:51:00;22.50;71.70
26909;DHT22;14477;51.038;4.588;2023-06-19T02:53:26;22.50;71.90
26909;DHT22;14477;51.038;4.588;2023-06-19T02:55:51;22.50;71.90
26909;DHT22;14477;51.038;4.588;2023-06-19T02:58:17;22.50;71.90
26909;DHT22;14477;51.038;4.588;2023-06-19T03:00:43;22.50;72.00
26909;DHT22;14477;51.038;4.588;2023-06-19T03:03:09;22.50;72.10
26909;DHT22;14477;51.038;4.588;2023-06-19T03:05:35;22.60;72.20
26909;DHT22;14477;51.038;4.588;2023-06-19T03:08:01;22.60;72.20
26909;DHT22;14477;51.038;4.588;2023-06-19T03:10:27;22.60;72.20
26909;DHT22;14477;51.038;4.588;2023-06-19T03:12:52;22.60;72.20
26909;DHT22;14477;51.038;4.588;2023-06-19T03:15:18;22.60;72.20
26909;DHT22;14477;51.038;4.588;2023-06-19T03:17:44;22.60;73.00
26909;DHT22;14477;51.038;4.588;2023-06-19T03:20:10;22.60;72.30
26909;DHT22;14477;51.038;4.588;2023-06-19T03:22:39;22.60;72.30
26909;DHT22;14477;51.038;4.588;2023-06-19T03:25:06;22.60;72.50
26909;DHT22;14477;51.038;4.588;2023-06-19T03:27:33;22.60;72.40
26909;DHT22;14477;51.038;4.588;2023-06-19T03:29:58;22.60;72.60
26909;DHT22;14477;51.038;4.588;2023-06-19T03:32:24;22.60;72.50
26909;DHT22;14477;51.038;4.588;2023-06-19T03:34:50;22.60;72.60
26909;DHT22;14477;51.038;4.588;2023-06-19T03:37:15;22.50;72.70
26909;DHT22;14477;51.038;4.588;2023-06-19T03:39:42;22.50;72.60
26909;DHT22;14477;51.038;4.588;2023-06-19T03:42:08;22.50;72.70
26909;DHT22;14477;51.038;4.588;2023-06-19T03:44:34;22.50;72.90
26909;DHT22;14477;51.038;4.588;2023-06-19T03:46:59;22.50;72.90
26909;DHT22;14477;51.038;4.588;2023-06-19T03:49:25;22.50;72.90
26909;DHT22;14477;51.038;4.588;2023-06-19T03:51:51;22.50;72.90
26909;DHT22;14477;51.038;4.588;2023-06-19T03:54:17;22.50;73.00
26909;DHT22;14477;51.038;4.588;2023-06-19T03:56:43;22.50;73.00
26909;DHT22;14477;51.038;4.588;2023-06-19T03:59:08;22.50;72.90
26909;DHT22;14477;51.038;4.588;2023-06-19T04:01:34;22.50;72.90
26909;DHT22;14477;51.038;4.588;2023-06-19T04:04:00;22.50;73.10
26909;DHT22;14477;51.038;4.588;2023-06-19T04:06:25;22.50;73.10
26909;DHT22;14477;51.038;4.588;2023-06-19T04:08:52;22.50;72.90
26909;DHT22;14477;51.038;4.588;2023-06-19T04:11:17;22.50;72.80
26909;DHT22;14477;51.038;4.588;2023-06-19T04:13:43;22.50;72.90
26909;DHT22;14477;51.038;4.588;2023-06-19T04:16:09;22.50;72.90
26909;DHT22;14477;51.038;4.588;2023-06-19T04:18:35;22.50;72.90
26909;DHT22;14477;51.038;4.588;2023-06-19T04:21:01;22.50;72.90
26909;DHT22;14477;51.038;4.588;2023-06-19T04:23:26;22.40;72.90
26909;DHT22;14477;51.038;4.588;2023-06-19T04:25:52;22.40;72.80
26909;DHT22;14477;51.038;4.588;2023-06-19T04:28:18;22.40;72.90
26909;DHT22;14477;51.038;4.588;2023-06-19T04:30:43;22.40;72.90
26909;DHT22;14477;51.038;4.588;2023-06-19T04:33:09;22.40;72.90
26909;DHT22;14477;51.038;4.588;2023-06-19T04:35:35;22.40;72.80
26909;DHT22;14477;51.038;4.588;2023-06-19T04:38:06;22.40;72.70
26909;DHT22;14477;51.038;4.588;2023-06-19T04:40:32;22.40;72.70
26909;DHT22;14477;51.038;4.588;2023-06-19T04:42:59;22.40;72.60
26909;DHT22;14477;51.038;4.588;2023-06-19T04:45:25;22.40;72.70
26909;DHT22;14477;51.038;4.588;2023-06-19T04:47:51;22.40;72.60
26909;DHT22;14477;51.038;4.588;2023-06-19T04:50:16;22.40;72.40
26909;DHT22;14477;51.038;4.588;2023-06-19T04:52:42;22.40;72.40
26909;DHT22;14477;51.038;4.588;2023-06-19T04:55:08;22.40;72.30
26909;DHT22;14477;51.038;4.588;2023-06-19T04:57:37;22.40;72.30
26909;DHT22;14477;51.038;4.588;2023-06-19T05:00:06;22.40;73.10
26909;DHT22;14477;51.038;4.588;2023-06-19T05:02:33;22.40;72.20
26909;DHT22;14477;51.038;4.588;2023-06-19T05:04:59;22.40;72.10
26909;DHT22;14477;51.038;4.588;2023-06-19T05:07:32;22.40;72.10
26909;DHT22;14477;51.038;4.588;2023-06-19T05:09:58;22.40;72.10
26909;DHT22;14477;51.038;4.588;2023-06-19T05:12:24;22.40;71.90
26909;DHT22;14477;51.038;4.588;2023-06-19T05:14:50;22.40;71.90
26909;DHT22;14477;51.038;4.588;2023-06-19T05:17:16;22.40;71.90
26909;DHT22;14477;51.038;4.588;2023-06-19T05:19:42;22.40;71.90
26909;DHT22;14477;51.038;4.588;2023-06-19T05:22:07;22.30;71.80
26909;DHT22;14477;51.038;4.588;2023-06-19T05:24:33;22.30;71.80
26909;DHT22;14477;51.038;4.588;2023-06-19T05:26:59;22.30;71.80
26909;DHT22;14477;51.038;4.588;2023-06-19T05:29:25;22.30;71.80
26909;DHT22;14477;51.038;4.588;2023-06-19T05:31:51;22.30;71.80
26909;DHT22;14477;51.038;4.588;2023-06-19T05:34:16;22.20;71.80
26909;DHT22;14477;51.038;4.588;2023-06-19T05:36:42;22.30;71.90
26909;DHT22;14477;51.038;4.588;2023-06-19T05:39:10;22.30;71.90
26909;DHT22;14477;51.038;4.588;2023-06-19T05:41:36;22.20;71.90
26909;DHT22;14477;51.038;4.588;2023-06-19T05:44:02;22.20;71.90
26909;DHT22;14477;51.038;4.588;2023-06-19T05:46:28;22.20;71.90
26909;DHT22;14477;51.038;4.588;2023-06-19T05:48:53;22.20;71.90
26909;DHT22;14477;51.038;4.588;2023-06-19T05:51:20;22.30;72.10
26909;DHT22;14477;51.038;4.588;2023-06-19T05:53:46;22.30;72.10
26909;DHT22;14477;51.038;4.588;2023-06-19T05:56:12;22.30;72.10
26909;DHT22;14477;51.038;4.588;2023-06-19T05:58:38;22.30;71.90
26909;DHT22;14477;51.038;4.588;2023-06-19T06:01:05;22.40;71.90
26909;DHT22;14477;51.038;4.588;2023-06-19T06:03:30;22.40;71.90
26909;DHT22;14477;51.038;4.588;2023-06-19T06:05:57;22.30;71.80
26909;DHT22;14477;51.038;4.588;2023-06-19T06:08:29;22.40;71.90
26909;DHT22;14477;51.038;4.588;2023-06-19T06:10:55;22.40;72.10
26909;DHT22;14477;51.038;4.588;2023-06-19T06:13:20;22.40;71.90
26909;DHT22;14477;51.038;4.588;2023-06-19T06:15:46;22.40;71.80
26909;DHT22;14477;51.038;4.588;2023-06-19T06:18:12;22.40;71.60
26909;DHT22;14477;51.038;4.588;2023-06-19T06:20:38;22.40;71.60
26909;DHT22;14477;51.038;4.588;2023-06-19T06:23:04;22.40;71.50
26909;DHT22;14477;51.038;4.588;2023-06-19T06:25:29;22.40;71.60
26909;DHT22;14477;51.038;4.588;2023-06-19T06:27:55;22.40;71.60
26909;DHT22;14477;51.038;4.588;2023-06-19T06:30:21;22.40;71.60
26909;DHT22;14477;51.038;4.588;2023-06-19T06:32:48;22.40;71.70
26909;DHT22;14477;51.038;4.588;2023-06-19T06:35:14;22.40;71.70
26909;DHT22;14477;51.038;4.588;2023-06-19T06:37:39;22.40;71.60
26909;DHT22;14477;51.038;4.588;2023-06-19T06:40:07;22.50;71.70
26909;DHT22;14477;51.038;4.588;2023-06-19T06:42:36;22.50;71.80
26909;DHT22;14477;51.038;4.588;2023-06-19T06:45:05;22.50;71.70
26909;DHT22;14477;51.038;4.588;2023-06-19T06:47:32;22.60;71.60
26909;DHT22;14477;51.038;4.588;2023-06-19T06:49:58;22.60;71.50
26909;DHT22;14477;51.038;4.588;2023-06-19T06:52:24;22.70;71.50
26909;DHT22;14477;51.038;4.588;2023-06-19T06:54:50;22.70;71.40
26909;DHT22;14477;51.038;4.588;2023-06-19T06:57:16;22.70;71.20
26909;DHT22;14477;51.038;4.588;2023-06-19T06:59:41;22.80;70.70
26909;DHT22;14477;51.038;4.588;2023-06-19T07:02:07;22.80;70.50
26909;DHT22;14477;51.038;4.588;2023-06-19T07:04:33;22.80;70.30
26909;DHT22;14477;51.038;4.588;2023-06-19T07:06:59;22.70;70.20
26909;DHT22;14477;51.038;4.588;2023-06-19T07:09:24;22.70;71.10
26909;DHT22;14477;51.038;4.588;2023-06-19T07:11:50;22.70;70.10
26909;DHT22;14477;51.038;4.588;2023-06-19T07:14:16;22.80;70.00
26909;DHT22;14477;51.038;4.588;2023-06-19T07:16:45;22.70;70.00
26909;DHT22;14477;51.038;4.588;2023-06-19T07:19:11;22.70;70.10
26909;DHT22;14477;51.038;4.588;2023-06-19T07:21:37;22.80;70.40
26909;DHT22;14477;51.038;4.588;2023-06-19T07:24:04;22.80;70.40
26909;DHT22;14477;51.038;4.588;2023-06-19T07:26:31;22.90;70.50
26909;DHT22;14477;51.038;4.588;2023-06-19T07:28:56;22.90;70.50
26909;DHT22;14477;51.038;4.588;2023-06-19T07:31:22;23.00;70.50
26909;DHT22;14477;51.038;4.588;2023-06-19T07:33:48;23.10;70.50
26909;DHT22;14477;51.038;4.588;2023-06-19T07:36:14;23.20;70.50
26909;DHT22;14477;51.038;4.588;2023-06-19T07:38:43;23.20;70.40
26909;DHT22;14477;51.038;4.588;2023-06-19T07:41:09;23.30;70.30
26909;DHT22;14477;51.038;4.588;2023-06-19T07:43:37;23.40;70.30
26909;DHT22;14477;51.038;4.588;2023-06-19T07:46:03;23.40;70.30
26909;DHT22;14477;51.038;4.588;2023-06-19T07:48:29;23.60;70.40
26909;DHT22;14477;51.038;4.588;2023-06-19T07:50:55;23.70;70.20
26909;DHT22;14477;51.038;4.588;2023-06-19T07:53:21;23.80;70.10
26909;DHT22;14477;51.038;4.588;2023-06-19T07:55:47;23.90;70.00
26909;DHT22;14477;51.038;4.588;2023-06-19T07:58:12;24.00;69.70
26909;DHT22;14477;51.038;4.588;2023-06-19T08:00:38;24.10;69.50
26909;DHT22;14477;51.038;4.588;2023-06-19T08:03:05;24.20;69.30
26909;DHT22;14477;51.038;4.588;2023-06-19T08:05:30;24.30;69.10
26909;DHT22;14477;51.038;4.588;2023-06-19T08:07:58;24.30;68.80
26909;DHT22;14477;51.038;4.588;2023-06-19T08:10:24;24.30;68.70
26909;DHT22;14477;51.038;4.588;2023-06-19T08:12:49;24.40;68.30
26909;DHT22;14477;51.038;4.588;2023-06-19T08:15:15;24.30;67.90
26909;DHT22;14477;51.038;4.588;2023-06-19T08:17:41;24.40;67.90
26909;DHT22;14477;51.038;4.588;2023-06-19T08:20:07;24.50;68.90
26909;DHT22;14477;51.038;4.588;2023-06-19T08:22:34;24.60;69.30
26909;DHT22;14477;51.038;4.588;2023-06-19T08:25:00;24.80;69.80
26909;DHT22;14477;51.038;4.588;2023-06-19T08:27:25;25.10;70.40
26909;DHT22;14477;51.038;4.588;2023-06-19T08:29:51;25.40;70.40
26909;DHT22;14477;51.038;4.588;2023-06-19T08:32:17;25.70;70.20
26909;DHT22;14477;51.038;4.588;2023-06-19T08:34:43;26.10;69.70
26909;DHT22;14477;51.038;4.588;2023-06-19T08:37:08;26.40;69.10
26909;DHT22;14477;51.038;4.588;2023-06-19T08:39:35;26.70;68.60
26909;DHT22;14477;51.038;4.588;2023-06-19T08:42:06;26.90;67.90
26909;DHT22;14477;51.038;4.588;2023-06-19T08:44:33;27.20;68.00
26909;DHT22;14477;51.038;4.588;2023-06-19T08:47:01;27.40;67.10
26909;DHT22;14477;51.038;4.588;2023-06-19T08:49:30;27.70;66.40
26909;DHT22;14477;51.038;4.588;2023-06-19T08:51:56;27.90;65.40
26909;DHT22;14477;51.038;4.588;2023-06-19T08:54:22;28.10;66.00
26909;DHT22;14477;51.038;4.588;2023-06-19T08:56:48;28.40;66.20
26909;DHT22;14477;51.038;4.588;2023-06-19T08:59:15;28.60;65.60
26909;DHT22;14477;51.038;4.588;2023-06-19T09:01:53;28.80;64.10
26909;DHT22;14477;51.038;4.588;2023-06-19T09:04:21;29.00;62.40
26909;DHT22;14477;51.038;4.588;2023-06-19T09:06:51;29.10;63.40
26909;DHT22;14477;51.038;4.588;2023-06-19T09:09:19;29.40;64.20
26909;DHT22;14477;51.038;4.588;2023-06-19T09:12:00;29.50;62.40
26909;DHT22;14477;51.038;4.588;2023-06-19T09:17:07;29.80;60.20
26909;DHT22;14477;51.038;4.588;2023-06-19T09:19:35;30.00;60.40
26909;DHT22;14477;51.038;4.588;2023-06-19T09:22:02;30.10;61.20
26909;DHT22;14477;51.038;4.588;2023-06-19T09:24:39;30.10;59.10
26909;DHT22;14477;51.038;4.588;2023-06-19T09:27:14;30.10;57.50
26909;DHT22;14477;51.038;4.588;2023-06-19T09:29:41;30.00;57.60
26909;DHT22;14477;51.038;4.588;2023-06-19T09:32:24;29.90;59.00
26909;DHT22;14477;51.038;4.588;2023-06-19T09:34:52;30.00;56.40
26909;DHT22;14477;51.038;4.588;2023-06-19T09:37:23;30.00;59.10
26909;DHT22;14477;51.038;4.588;2023-06-19T09:39:58;30.00;57.60
26909;DHT22;14477;51.038;4.588;2023-06-19T09:42:32;30.10;57.60
26909;DHT22;14477;51.038;4.588;2023-06-19T09:45:01;30.20;57.60
26909;DHT22;14477;51.038;4.588;2023-06-19T09:47:31;30.20;58.10
26909;DHT22;14477;51.038;4.588;2023-06-19T09:49:57;30.40;57.40
26909;DHT22;14477;51.038;4.588;2023-06-19T09:52:24;30.40;57.40
26909;DHT22;14477;51.038;4.588;2023-06-19T09:54:50;30.40;57.00
26909;DHT22;14477;51.038;4.588;2023-06-19T09:57:16;30.40;56.90
26909;DHT22;14477;51.038;4.588;2023-06-19T09:59:44;30.50;56.00
26909;DHT22;14477;51.038;4.588;2023-06-19T10:02:11;30.40;55.20
26909;DHT22;14477;51.038;4.588;2023-06-19T10:04:46;30.20;55.00
26909;DHT22;14477;51.038;4.588;2023-06-19T10:07:16;30.00;55.00
26909;DHT22;14477;51.038;4.588;2023-06-19T10:09:54;29.90;54.70
26909;DHT22;14477;51.038;4.588;2023-06-19T10:12:19;29.70;55.10
26909;DHT22;14477;51.038;4.588;2023-06-19T10:14:47;29.60;55.50
26909;DHT22;14477;51.038;4.588;2023-06-19T10:17:16;29.60;55.80
26909;DHT22;14477;51.038;4.588;2023-06-19T10:19:50;29.60;55.90
26909;DHT22;14477;51.038;4.588;2023-06-19T10:22:22;29.60;55.70
26909;DHT22;14477;51.038;4.588;2023-06-19T10:24:50;29.70;55.60
26909;DHT22;14477;51.038;4.588;2023-06-19T10:27:24;29.80;55.40
26909;DHT22;14477;51.038;4.588;2023-06-19T10:29:54;29.90;55.40
26909;DHT22;14477;51.038;4.588;2023-06-19T10:32:23;30.00;56.20
26909;DHT22;14477;51.038;4.588;2023-06-19T10:34:48;30.20;57.20
26909;DHT22;14477;51.038;4.588;2023-06-19T10:37:15;30.50;57.30
26909;DHT22;14477;51.038;4.588;2023-06-19T10:39:41;30.90;56.90
26909;DHT22;14477;51.038;4.588;2023-06-19T10:42:08;31.20;56.20
26909;DHT22;14477;51.038;4.588;2023-06-19T10:44:35;31.50;55.70
26909;DHT22;14477;51.038;4.588;2023-06-19T10:47:02;31.70;54.90
26909;DHT22;14477;51.038;4.588;2023-06-19T10:49:28;31.90;54.20
26909;DHT22;14477;51.038;4.588;2023-06-19T10:51:54;32.00;53.70
26909;DHT22;14477;51.038;4.588;2023-06-19T10:54:25;32.10;53.80
26909;DHT22;14477;51.038;4.588;2023-06-19T10:56:51;32.20;53.70
26909;DHT22;14477;51.038;4.588;2023-06-19T10:59:17;32.50;53.70
26909;DHT22;14477;51.038;4.588;2023-06-19T11:04:11;32.80;53.30
26909;DHT22;14477;51.038;4.588;2023-06-19T11:06:39;33.10;52.90
26909;DHT22;14477;51.038;4.588;2023-06-19T11:09:06;33.30;52.70
26909;DHT22;14477;51.038;4.588;2023-06-19T11:14:08;33.60;50.20
26909;DHT22;14477;51.038;4.588;2023-06-19T11:16:37;33.70;51.50
26909;DHT22;14477;51.038;4.588;2023-06-19T11:19:03;33.90;51.50
26909;DHT22;14477;51.038;4.588;2023-06-19T11:21:33;34.20;51.40
26909;DHT22;14477;51.038;4.588;2023-06-19T11:24:04;34.40;50.70
26909;DHT22;14477;51.038;4.588;2023-06-19T11:26:35;34.80;51.10
26909;DHT22;14477;51.038;4.588;2023-06-19T11:29:01;34.90;48.90
26909;DHT22;14477;51.038;4.588;2023-06-19T11:31:28;35.00;49.30
26909;DHT22;14477;51.038;4.588;2023-06-19T11:34:00;35.20;48.90
26909;DHT22;14477;51.038;4.588;2023-06-19T11:36:29;35.20;47.10
26909;DHT22;14477;51.038;4.588;2023-06-19T11:38:55;35.40;48.10
26909;DHT22;14477;51.038;4.588;2023-06-19T11:41:28;35.50;47.80
26909;DHT22;14477;51.038;4.588;2023-06-19T11:44:07;35.50;46.20
26909;DHT22;14477;51.038;4.588;2023-06-19T11:46:36;35.60;45.70
26909;DHT22;14477;51.038;4.588;2023-06-19T11:49:12;35.60;46.40
26909;DHT22;14477;51.038;4.588;2023-06-19T11:51:39;35.70;45.00
26909;DHT22;14477;51.038;4.588;2023-06-19T11:54:09;35.70;46.70
26909;DHT22;14477;51.038;4.588;2023-06-19T11:56:38;35.70;45.40
26909;DHT22;14477;51.038;4.588;2023-06-19T11:59:05;35.80;46.20
26909;DHT22;14477;51.038;4.588;2023-06-19T12:01:32;35.90;45.70
26909;DHT22;14477;51.038;4.588;2023-06-19T12:03:58;36.00;45.00
26909;DHT22;14477;51.038;4.588;2023-06-19T12:06:24;36.20;44.70
26909;DHT22;14477;51.038;4.588;2023-06-19T12:08:50;36.20;44.10
26909;DHT22;14477;51.038;4.588;2023-06-19T12:11:16;36.20;43.90
26909;DHT22;14477;51.038;4.588;2023-06-19T12:13:42;36.30;43.70
26909;DHT22;14477;51.038;4.588;2023-06-19T12:16:11;36.30;43.50
26909;DHT22;14477;51.038;4.588;2023-06-19T12:18:37;36.40;43.20
26909;DHT22;14477;51.038;4.588;2023-06-19T12:21:03;36.50;43.00
26909;DHT22;14477;51.038;4.588;2023-06-19T12:23:29;36.60;43.10
26909;DHT22;14477;51.038;4.588;2023-06-19T12:25:55;36.80;42.60
26909;DHT22;14477;51.038;4.588;2023-06-19T12:28:21;36.90;42.10
26909;DHT22;14477;51.038;4.588;2023-06-19T12:30:48;37.10;41.90
26909;DHT22;14477;51.038;4.588;2023-06-19T12:33:17;37.20;41.70
26909;DHT22;14477;51.038;4.588;2023-06-19T12:35:44;37.30;41.60
26909;DHT22;14477;51.038;4.588;2023-06-19T12:38:10;37.40;41.40
26909;DHT22;14477;51.038;4.588;2023-06-19T12:40:39;37.50;41.20
26909;DHT22;14477;51.038;4.588;2023-06-19T12:43:05;37.60;39.90
26909;DHT22;14477;51.038;4.588;2023-06-19T12:45:31;37.70;40.50
26909;DHT22;14477;51.038;4.588;2023-06-19T12:47:57;37.80;40.40
26909;DHT22;14477;51.038;4.588;2023-06-19T12:50:22;37.90;40.50
26909;DHT22;14477;51.038;4.588;2023-06-19T12:52:49;38.20;40.00
26909;DHT22;14477;51.038;4.588;2023-06-19T12:55:15;38.20;39.90
26909;DHT22;14477;51.038;4.588;2023-06-19T12:57:41;38.40;40.10
26909;DHT22;14477;51.038;4.588;2023-06-19T13:00:11;38.50;39.80
26909;DHT22;14477;51.038;4.588;2023-06-19T13:02:40;38.60;38.30
26909;DHT22;14477;51.038;4.588;2023-06-19T13:05:11;38.60;38.50
26909;DHT22;14477;51.038;4.588;2023-06-19T13:07:37;38.60;38.30
26909;DHT22;14477;51.038;4.588;2023-06-19T13:10:03;38.60;37.60
26909;DHT22;14477;51.038;4.588;2023-06-19T13:12:31;38.50;37.20
26909;DHT22;14477;51.038;4.588;2023-06-19T13:14:58;38.40;37.20
26909;DHT22;14477;51.038;4.588;2023-06-19T13:17:24;38.30;37.20
26909;DHT22;14477;51.038;4.588;2023-06-19T13:19:49;38.20;36.70
26909;DHT22;14477;51.038;4.588;2023-06-19T13:22:15;38.00;37.00
26909;DHT22;14477;51.038;4.588;2023-06-19T13:24:41;37.90;37.10
26909;DHT22;14477;51.038;4.588;2023-06-19T13:27:07;37.90;37.20
26909;DHT22;14477;51.038;4.588;2023-06-19T13:29:34;37.80;37.40
26909;DHT22;14477;51.038;4.588;2023-06-19T13:31:59;37.90;38.10
26909;DHT22;14477;51.038;4.588;2023-06-19T13:34:26;38.00;37.40
26909;DHT22;14477;51.038;4.588;2023-06-19T13:36:51;38.00;37.20
26909;DHT22;14477;51.038;4.588;2023-06-19T13:39:17;38.20;36.60
26909;DHT22;14477;51.038;4.588;2023-06-19T13:41:46;38.20;36.40
26909;DHT22;14477;51.038;4.588;2023-06-19T13:44:12;38.20;36.70
26909;DHT22;14477;51.038;4.588;2023-06-19T13:46:38;38.10;36.40
26909;DHT22;14477;51.038;4.588;2023-06-19T13:49:04;38.10;36.40
26909;DHT22;14477;51.038;4.588;2023-06-19T13:51:30;38.20;36.40
26909;DHT22;14477;51.038;4.588;2023-06-19T13:53:55;38.20;36.40
26909;DHT22;14477;51.038;4.588;2023-06-19T13:56:21;38.30;36.60
26909;DHT22;14477;51.038;4.588;2023-06-19T13:58:49;38.40;36.30
26909;DHT22;14477;51.038;4.588;2023-06-19T14:01:15;38.50;36.10
26909;DHT22;14477;51.038;4.588;2023-06-19T14:03:41;38.60;35.80
26909;DHT22;14477;51.038;4.588;2023-06-19T14:06:07;38.60;35.70
26909;DHT22;14477;51.038;4.588;2023-06-19T14:08:33;38.50;35.80
26909;DHT22;14477;51.038;4.588;2023-06-19T14:10:59;38.50;35.70
26909;DHT22;14477;51.038;4.588;2023-06-19T14:13:25;38.50;35.40
26909;DHT22;14477;51.038;4.588;2023-06-19T14:15:51;38.40;35.10
26909;DHT22;14477;51.038;4.588;2023-06-19T14:18:18;38.40;35.20
26909;DHT22;14477;51.038;4.588;2023-06-19T14:20:44;38.40;35.80
26909;DHT22;14477;51.038;4.588;2023-06-19T14:23:09;38.50;35.90
26909;DHT22;14477;51.038;4.588;2023-06-19T14:25:35;38.50;34.80
26909;DHT22;14477;51.038;4.588;2023-06-19T14:28:01;38.50;34.90
26909;DHT22;14477;51.038;4.588;2023-06-19T14:30:27;38.40;34.60
26909;DHT22;14477;51.038;4.588;2023-06-19T14:32:52;38.40;35.40
26909;DHT22;14477;51.038;4.588;2023-06-19T14:35:18;38.30;34.30
26909;DHT22;14477;51.038;4.588;2023-06-19T14:37:44;38.30;34.40
26909;DHT22;14477;51.038;4.588;2023-06-19T14:40:10;38.20;34.10
26909;DHT22;14477;51.038;4.588;2023-06-19T14:42:36;38.10;34.00
26909;DHT22;14477;51.038;4.588;2023-06-19T14:45:02;38.00;33.80
26909;DHT22;14477;51.038;4.588;2023-06-19T14:47:27;37.90;33.60
26909;DHT22;14477;51.038;4.588;2023-06-19T14:49:53;37.70;33.60
26909;DHT22;14477;51.038;4.588;2023-06-19T14:52:19;37.50;33.60
26909;DHT22;14477;51.038;4.588;2023-06-19T14:54:46;37.30;33.90
26909;DHT22;14477;51.038;4.588;2023-06-19T14:57:12;37.20;34.00
26909;DHT22;14477;51.038;4.588;2023-06-19T14:59:38;37.00;34.10
26909;DHT22;14477;51.038;4.588;2023-06-19T15:02:04;36.90;34.10
26909;DHT22;14477;51.038;4.588;2023-06-19T15:04:32;36.80;34.40
26909;DHT22;14477;51.038;4.588;2023-06-19T15:06:58;36.70;34.40
26909;DHT22;14477;51.038;4.588;2023-06-19T15:09:23;36.60;34.30
26909;DHT22;14477;51.038;4.588;2023-06-19T15:11:49;36.50;34.60
26909;DHT22;14477;51.038;4.588;2023-06-19T15:14:15;36.50;34.80
26909;DHT22;14477;51.038;4.588;2023-06-19T15:16:42;36.40;34.70
26909;DHT22;14477;51.038;4.588;2023-06-19T15:19:08;36.40;34.70
26909;DHT22;14477;51.038;4.588;2023-06-19T15:21:34;36.30;34.50
26909;DHT22;14477;51.038;4.588;2023-06-19T15:23:59;36.20;34.30
26909;DHT22;14477;51.038;4.588;2023-06-19T15:26:25;36.10;35.00
26909;DHT22;14477;51.038;4.588;2023-06-19T15:28:51;35.90;34.30
26909;DHT22;14477;51.038;4.588;2023-06-19T15:31:21;35.80;34.50
26909;DHT22;14477;51.038;4.588;2023-06-19T15:33:47;35.70;34.70
26909;DHT22;14477;51.038;4.588;2023-06-19T15:36:13;35.60;35.00